ソルトレイクシティ の空港の天気 - METARとTAF

ソルト・レーク・シティ国際空港 ( KSLC / SLC ) - アメリカ ユタ州ソルトレイクシティ
飛行場実況気象(Metar)
観測時間01/22 20:54 MST (01/23 03:54 UTC)
風向・風速静穏 0m/s
視程10km以上
天気現象
全天の8割程度の雲 雲底高度 1680m
全天の8割程度の雲 雲底高度 2130m
気温1.7℃
湿度54%
気圧1028.1hPa
METARKSLC 230354Z 00000KT 10SM BKN055 BKN070 02/M07 A3031 RMK AO2 SLP281 T00171067
過去の天気等 Google飛行場航空写真 Wunderground天気予報

過去48時間のMETAR

飛行場予報(TAF)
発表時間: 1/22 19:45 MST (1/23 02:45 UTC)
予報対象時間: 22日20時 MST ~ 23日23時 MST
風向・風速南南東 3m/s
視程10km以上
全天の8割程度の雲 雲底高度 1,830m
全天の8割程度の雲 雲底高度 2,440m
23日1時 MST から
風向・風速南東 3m/s
視程10km以上
全天の4割程度の雲 雲底高度 1,830m
全天の8割程度の雲 雲底高度 2,440m
23日12時 MST から
風向・風速西北西 3m/s
視程10km以上
全天の4割程度の雲 雲底高度 2,440m
23日19時 MST から
風向・風速南南東 4m/s
視程10km以上
少しの雲 雲底高度 2,440m
全天の8割程度の雲 雲底高度 6,100m
KSLC 230245Z 2303/2406 15005KT P6SM BKN060 BKN080
FM230800 14005KT P6SM SCT060 BKN080
FM231900 29005KT P6SM SCT080
FM240200 15007KT P6SM FEW080 BKN200